x

Tanner Bank - 121nm West Of San Diego, Ca (46047) Wave Buoy

6:50am - Tue 16th Sep 2014 All times are PDT. -7 hours from GMT.

  • Sig Wave height 7.5ft
  • Swell Direction
  • Peak Period 19s
  • Average Period 6s
  • Wind
    25mph, 29mph gusts
  • Sea Temp 70°f
  • Air Temp 69°f
  • Sea Pressure 1008.5mb
  • Tanner Bank - 121nm West Of San Diego, Ca
  • Tanner Bank - 121nm West Of San Diego, Ca

More Historic Weather Station data

Upgrade to MSW Pro to gain access to the past 30 days of data for over 8000 Wavebouys and Weather Stations around the globe.

Join Pro

Comparision Forecast

View Surf forecast
   
Tue 09/16 6:50am 7.5ft 19s 6s 25 29 mph 1008.5mb 70f 69f
5:50am 7ft 7s 6s 25 29 mph 1008mb 70f 69f
4:50am 7.5ft 19s 6s 25 29 mph 1007.9mb 70f 69f
3:50am 6.5ft 19s 6s 22 27 mph 1008.3mb 69f 69f
2:50am 6.5ft 21s 6s 22 27 mph 1008.7mb 69f 69f
1:50am 7ft 6s 6s 22 25 mph 1009.2mb 69f 69f
12:50am 7ft 19s 6s 20 27 mph 1009.5mb 69f 69f
Mon 09/15 11:50pm 7ft 21s 6s 22 25 mph 1009.7mb 69f 69f
10:50pm 7ft 6s 6s 22 27 mph 1009.8mb 69f 69f
9:50pm 7ft 21s 6s 25 31 mph 1009.2mb 69f 69f
8:50pm 7ft 7s 5s 25 31 mph 1009mb 70f 69f
7:50pm 6ft 5s 5s 25 31 mph 1008.3mb 70f 69f
6:50pm 6ft 6s 5s 22 29 mph 1008.5mb 70f 69f
5:50pm 6ft 21s 5s 22 27 mph 1008.5mb 70f 69f
4:50pm 6ft 21s 6s 20 27 mph 1008.7mb 70f 69f
3:50pm 5.5ft 7s 5s 20 25 mph 1008.8mb 70f 69f
2:50pm 6ft 6s 6s 20 25 mph 1009mb 70f 69f
1:50pm 5.5ft 7s 5s 20 22 mph 1009.6mb 70f 69f
12:50pm 5ft 6s 5s 18 22 mph 1010.1mb 70f 69f
11:50am 5.5ft 6s 5s 20 22 mph 1010.4mb 70f 68f
10:50am 5.5ft 6s 5s 18 22 mph 1010.5mb 70f 68f
9:50am 5.5ft 21s 5s 20 22 mph 1010.3mb 70f 68f
8:50am 6ft 21s 6s 20 22 mph 1009.9mb 70f 68f
7:50am  -   -   -  20 22 mph 1009.5mb 70f 68f
6:50am 5ft 7s 5s 20 25 mph 1009.1mb 70f 68f
5:50am 5ft 7s 5s 16 20 mph 1008.9mb 70f 68f
4:50am 5ft 7s 5s 18 20 mph 1008.5mb 70f 68f
3:50am 5.5ft 7s 6s 16 20 mph 1008.4mb 70f 68f
2:50am 5.5ft 6s 6s 16 20 mph 1008.6mb 70f 69f
1:50am 6ft 7s 6s 13 16 mph 1008.9mb 70f 68f
12:50am 6ft 7s 5s 16 18 mph 1008.8mb 70f 68f
Sun 09/14 11:50pm 6ft 7s 6s 18 22 mph 1008.6mb 70f 69f
10:50pm 6.5ft 7s 5s 20 25 mph 1008.2mb 70f 69f
9:50pm 6ft 7s 5s 20 25 mph 1007.9mb 70f 69f
8:50pm 6ft 7s 5s 22 27 mph 1007.5mb 70f 69f
7:50pm 6ft 6s 5s 22 25 mph 1006.9mb 70f 69f
6:50pm  -   -   -  22 27 mph 1006.8mb 70f 68f
5:50pm 6.5ft 7s 5s 22 27 mph 1006.9mb 70f 68f
4:50pm 6ft 6s 5s 22 25 mph 1007.1mb 70f 68f
3:50pm  -   -   -  22 27 mph 1007.2mb 70f 67f
2:50pm 6ft 7s 5s 22 27 mph 1007.6mb 70f 67f
1:50pm 6ft 7s 5s 22 25 mph 1008.1mb 70f 67f
12:50pm 6ft 6s 5s 20 25 mph 1008.6mb 70f 67f
11:50am 6ft 7s 5s 22 25 mph 1008.7mb 70f 67f
10:50am 5.5ft 6s 5s 22 25 mph 1008.8mb 70f 67f
9:50am 5ft 6s 5s 22 25 mph 1008.8mb 70f 67f
8:50am 6ft 7s 5s 22 25 mph 1008.5mb 70f 67f
7:50am 5.5ft 6s 6s 20 22 mph 1008.1mb 70f 68f
6:50am 5.5ft 7s 6s 18 20 mph 1007.9mb 70f 68f
5:50am 6ft 7s 6s 16 20 mph 1007.4mb 70f 68f
4:50am 6ft 7s 6s 16 18 mph 1007mb 70f 67f
3:50am 5.5ft 7s 6s 16 18 mph 1007.3mb 70f 67f
2:50am 6ft 7s 6s 18 20 mph 1007.4mb 70f 67f
1:50am 6ft 7s 6s 18 20 mph 1007.5mb 70f 67f
12:50am 6.5ft 7s 6s 16 20 mph 1008mb 70f 67f
Sat 09/13 11:50pm 7ft 6s 6s 20 22 mph 1007.7mb 70f 67f
10:50pm 7ft 6s 5s 20 25 mph 1007.5mb 70f 67f
9:50pm 6ft 6s 5s 25 29 mph 1007.2mb 70f 67f
8:50pm 6.5ft 6s 5s 22 29 mph 1007.3mb 70f 67f
7:50pm 5.5ft 6s 5s 25 29 mph 1007.1mb 70f 67f
6:50pm 6ft 6s 5s 22 27 mph 1007.2mb 70f 67f
5:50pm 6ft 6s 5s 25 29 mph 1007.4mb 70f 67f
4:50pm 6ft 6s 5s 22 27 mph 1007.7mb 70f 67f
3:50pm 6ft 6s 5s 22 25 mph 1008mb 70f 67f
2:50pm 5.5ft 6s 5s 20 25 mph 1008.4mb 70f 67f
1:50pm 5ft 6s 5s 20 25 mph 1008.5mb 70f 67f
12:50pm 5ft 6s 5s 22 25 mph 1008.9mb 70f 67f
11:50am 5ft 6s 5s 20 25 mph 1009.5mb 70f 67f
10:50am 5ft 6s 5s 20 22 mph 1009.9mb 70f 66f
9:50am 5ft 6s 5s 18 22 mph 1010.1mb 70f 66f
8:50am 5ft 7s 5s 16 20 mph 1010mb 70f 66f
7:50am 5ft 13s 5s 18 22 mph 1009.4mb 70f 66f
6:50am 5ft 13s 6s 20 22 mph 1008.9mb 70f 66f
5:50am 5.5ft 13s 6s 20 22 mph 1008.9mb 70f 67f
4:50am 5ft 6s 6s 16 18 mph 1008.8mb 70f 67f
3:50am 6ft 7s 6s 16 18 mph 1008.7mb 70f 67f
2:50am 6ft 7s 6s 16 20 mph 1008.9mb 70f 67f
1:50am 5.5ft 6s 6s 18 20 mph 1009.1mb 70f 67f
12:50am 5.5ft 6s 6s 18 20 mph 1009.4mb 70f 67f
Fri 09/12 11:50pm 6ft 6s 6s 16 18 mph 1009.6mb 70f 67f
10:50pm 6ft 6s 6s 20 22 mph 1009.7mb 70f 67f
9:50pm 6ft 12s 5s 20 25 mph 1009.4mb 70f 67f
8:50pm 5.5ft 6s 5s 22 27 mph 1008.8mb 70f 67f
7:50pm 6ft 12s 5s 20 25 mph 1008.6mb 70f 67f
6:50pm 5ft 12s 5s 20 25 mph 1008.5mb 70f 67f
5:50pm 5.5ft 14s 6s 20 25 mph 1009mb 70f 67f
4:50pm 5ft 13s 5s 18 22 mph 1009.3mb 70f 67f
3:50pm 5.5ft 13s 6s 18 22 mph 1009.6mb 70f 67f